^^
Saratoga-Weather Station Historical Data
Daily Summary for January 22, 2021 Units:  English    Metric   Both
Daily Weekly Monthly Yearly Custom
  High: Low: Average:
Temperature: 43.7 °F 41.5 °F 42.6 °F
Dew Point: 41.7 °F 38.5 °F 40.1 °F
Humidity: 95% 84% 91%
Wind Speed: 6.9mph 0mph 1.7mph
Wind Gust: 10mph - -
Wind- - SW
Pressure: 30.2 in 30 in -
Precipitation: 0 in    
Historical Graphs
 
 
Tabular Data for January 22, 2021
Time Temperature Dew Point Pressure Wind Wind Speed Wind Gust Humidity Rainfall Rate (Hourly) solar
00:03 43 °F 41.7 °F 30 in Calm     95% 0.02 in 0 W/m2
00:08 43 °F 41.7 °F 30 in Calm   2 mph 95% 0.02 in 0 W/m2
00:13 43 °F 41.7 °F 30 in Calm     95% 0.02 in 0 W/m2
00:18 43 °F 41.7 °F 30 in Calm     95% 0.02 in 0 W/m2
00:23 43 °F 41.7 °F 30 in Calm     95% 0.01 in 0 W/m2
00:28 42.8 °F 41.5 °F 30 in WNW 0.9 mph 2 mph 95% 0.01 in 0 W/m2
00:33 42.8 °F 41.5 °F 30 in NNW 2 mph 2 mph 95% 0.01 in 0 W/m2
00:38 42.8 °F 41.5 °F 30 in West 4 mph 4 mph 95% 0.01 in 0 W/m2
00:43 42.8 °F 41.5 °F 30 in NW 0.9 mph 2 mph 95% 0 in 0 W/m2
00:48 42.8 °F 41.5 °F 30 in Calm   4 mph 95% 0 in 0 W/m2
00:53 42.8 °F 41.5 °F 30 in NW 2 mph 3 mph 95% 0 in 0 W/m2
00:58 43 °F 41.7 °F 30 in WNW 2 mph 4 mph 95% 0 in 0 W/m2
01:04 43 °F 41.7 °F 30 in NW 2 mph 2 mph 95% 0 in 0 W/m2
01:09 43 °F 41.4 °F 30 in WNW 2.9 mph 4 mph 94% 0 in 0 W/m2
01:14 43.2 °F 41.5 °F 30 in NW 0.9 mph 2 mph 94% 0 in 0 W/m2
01:19 43.2 °F 41.5 °F 30 in NNW 0.9 mph 5 mph 94% 0 in 0 W/m2
01:24 43.2 °F 41.5 °F 30 in North 0.9 mph 3 mph 94% 0 in 0 W/m2
01:29 43.2 °F 41.5 °F 30 in WSW 0.9 mph 1 mph 94% 0 in 0 W/m2
01:34 43.2 °F 41.5 °F 30 in WNW 0.9 mph 2 mph 94% 0 in 0 W/m2
01:39 43.3 °F 41.7 °F 30 in NW 0.9 mph 3 mph 94% 0 in 0 W/m2
01:44 43.2 °F 41.5 °F 30 in NE 2 mph 3 mph 94% 0 in 0 W/m2
01:49 43.2 °F 41.4 °F 30 in WNW 0.9 mph 3 mph 93% 0 in 0 W/m2
01:54 43.2 °F 41.4 °F 30 in ENE 2.9 mph 3 mph 93% 0 in 0 W/m2
01:59 43.2 °F 41.5 °F 30 in North 2 mph 3 mph 94% 0 in 0 W/m2
02:04 43.2 °F 41.4 °F 30 in West 2 mph 3 mph 93% 0 in 0 W/m2
02:09 43.2 °F 41.4 °F 30 in NNW 0.9 mph 3 mph 93% 0 in 0 W/m2
02:14 43.2 °F 41.4 °F 30 in NNW 0.9 mph 4 mph 93% 0 in 0 W/m2
02:19 43.2 °F 41.4 °F 30 in Calm     93% 0 in 0 W/m2
02:24 43.2 °F 41.4 °F 30 in WNW 0.9 mph 2 mph 93% 0 in 0 W/m2
02:29 43.2 °F 41.4 °F 30 in West 2.9 mph 4 mph 93% 0 in 0 W/m2
02:34 43.2 °F 41.4 °F 30 in NW 2 mph 5 mph 93% 0 in 0 W/m2
02:39 43.2 °F 41.4 °F 30 in West 0.9 mph 4 mph 93% 0 in 0 W/m2
02:44 43.2 °F 41.4 °F 30 in NNE 0.9 mph 4 mph 93% 0 in 0 W/m2
02:49 43.2 °F 41.4 °F 30 in West 2 mph 3 mph 93% 0 in 0 W/m2
02:54 43.2 °F 41 °F 30 in WNW 2 mph 4 mph 92% 0 in 0 W/m2
02:59 43.2 °F 41 °F 30 in Calm   5 mph 92% 0 in 0 W/m2
03:04 43.2 °F 41 °F 30 in West 2 mph 4 mph 92% 0 in 0 W/m2
03:09 43.3 °F 41.2 °F 30 in NNW 0.9 mph 2 mph 92% 0 in 0 W/m2
03:14 43.3 °F 41.2 °F 30 in North 0.9 mph 7 mph 92% 0 in 0 W/m2
03:19 43.3 °F 41.2 °F 30 in NW 0.9 mph 6 mph 92% 0 in 0 W/m2
03:24 43.3 °F 40.8 °F 30 in NNE 0.9 mph 9 mph 91% 0 in 0 W/m2
03:29 43.3 °F 40.8 °F 30 in NNW 2 mph 6 mph 91% 0 in 0 W/m2
03:34 43.3 °F 40.8 °F 30 in North 2.9 mph 9 mph 91% 0 in 0 W/m2
03:39 43.3 °F 40.8 °F 30 in Calm   4 mph 91% 0 in 0 W/m2
03:44 43.2 °F 40.6 °F 30 in SW 0.9 mph 6 mph 91% 0 in 0 W/m2
03:49 43.2 °F 40.6 °F 30 in Calm   5 mph 91% 0 in 0 W/m2
03:54 43.2 °F 40.6 °F 30 in WNW 2 mph 4 mph 91% 0 in 0 W/m2
03:59 43.2 °F 40.6 °F 30 in WNW 0.9 mph 2 mph 91% 0 in 0 W/m2
04:04 43.2 °F 40.6 °F 30 in NNE 2.9 mph 6 mph 91% 0 in 0 W/m2
04:09 43 °F 40.5 °F 30 in NNW 2.9 mph 3 mph 91% 0 in 0 W/m2
04:14 43 °F 40.5 °F 30 in North 0.9 mph 5 mph 91% 0 in 0 W/m2
04:19 43 °F 40.5 °F 30 in West 2 mph 3 mph 91% 0 in 0 W/m2
04:24 42.8 °F 40.3 °F 30 in Calm   3 mph 91% 0 in 0 W/m2
04:29 42.8 °F 40.3 °F 30 in NW 2 mph 5 mph 91% 0 in 0 W/m2
04:34 42.6 °F 40.1 °F 30 in North 0.9 mph 7 mph 91% 0 in 0 W/m2
04:39 42.6 °F 40.1 °F 30 in NNW 0.9 mph 2 mph 91% 0 in 0 W/m2
04:44 42.6 °F 40.1 °F 30 in NW 2 mph 4 mph 91% 0 in 0 W/m2
04:49 42.6 °F 40.1 °F 30 in WNW 4 mph 8 mph 91% 0 in 0 W/m2
04:54 42.6 °F 40.1 °F 30 in West 2 mph 3 mph 91% 0 in 0 W/m2
04:59 42.6 °F 40.1 °F 30 in NW 0.9 mph 8 mph 91% 0 in 0 W/m2
05:04 42.6 °F 40.1 °F 30 in West 2 mph 3 mph 91% 0 in 0 W/m2
05:09 42.6 °F 40.1 °F 30 in West 0.9 mph 4 mph 91% 0 in 0 W/m2
05:14 42.4 °F 39.9 °F 30 in NW 2 mph 7 mph 91% 0 in 0 W/m2
05:19 42.4 °F 39.7 °F 30 in NW 0.9 mph 3 mph 90% 0 in 0 W/m2
05:24 42.4 °F 39.7 °F 30 in WNW 2.9 mph 6 mph 90% 0 in 0 W/m2
05:29 42.4 °F 39.7 °F 30 in WNW 2.9 mph 5 mph 90% 0 in 0 W/m2
05:34 42.4 °F 39.7 °F 30 in North 0.9 mph 4 mph 90% 0 in 0 W/m2
05:39 42.4 °F 39.7 °F 30 in NNE 0.9 mph 4 mph 90% 0 in 0 W/m2
05:44 42.4 °F 39.7 °F 30 in South 2 mph 2 mph 90% 0 in 0 W/m2
05:49 42.4 °F 39.7 °F 30 in Calm   5 mph 90% 0 in 0 W/m2
05:54 42.4 °F 39.7 °F 30 in SSE 4 mph 6 mph 90% 0 in 0 W/m2
05:59 42.4 °F 39.7 °F 30.1 in West 4 mph 4 mph 90% 0 in 0 W/m2
06:04 42.3 °F 39.6 °F 30.1 in North 4 mph 6 mph 90% 0 in 0 W/m2
06:09 42.3 °F 39.2 °F 30.1 in WSW 0.9 mph 5 mph 89% 0 in 0 W/m2
06:14 42.3 °F 39.2 °F 30.1 in NNW 0.9 mph 7 mph 89% 0 in 0 W/m2
06:19 42.3 °F 39.2 °F 30.1 in East 0.9 mph 3 mph 89% 0 in 0 W/m2
06:24 42.3 °F 39.2 °F 30.1 in North 0.9 mph 3 mph 89% 0 in 0 W/m2
06:29 42.3 °F 39.2 °F 30.1 in ENE 6.9 mph 10 mph 89% 0 in 0 W/m2
06:34 42.1 °F 39 °F 30.1 in East 2.9 mph 3 mph 89% 0 in 0 W/m2
06:39 42.1 °F 39 °F 30.1 in NE 2 mph 10 mph 89% 0 in 0 W/m2
06:44 42.1 °F 39 °F 30.1 in East 2.9 mph 5 mph 89% 0 in 0 W/m2
06:49 42.1 °F 39 °F 30.1 in East 0.9 mph 3 mph 89% 0 in 0 W/m2
06:54 41.9 °F 38.8 °F 30.1 in North 2.9 mph 3 mph 89% 0 in 0 W/m2
06:59 41.7 °F 38.7 °F 30.1 in NW 2 mph 6 mph 89% 0 in 0 W/m2
07:04 41.7 °F 38.7 °F 30.1 in North 2 mph 6 mph 89% 0 in 0 W/m2
07:09 41.7 °F 38.7 °F 30.1 in Calm   3 mph 89% 0 in 0 W/m2
07:14 41.7 °F 38.7 °F 30.1 in WNW 2 mph 2 mph 89% 0 in 0 W/m2
07:19 41.5 °F 38.5 °F 30.1 in WNW 4 mph 6 mph 89% 0 in 0 W/m2
07:24 41.5 °F 38.5 °F 30.1 in North 2.9 mph 4 mph 89% 0 in 0 W/m2
07:29 41.5 °F 38.5 °F 30.1 in WSW 2.9 mph 6 mph 89% 0 in 0 W/m2
07:34 41.5 °F 38.5 °F 30.1 in WNW 0.9 mph 5 mph 89% 0 in 0 W/m2
07:40 41.5 °F 38.5 °F 30.1 in NW 0.9 mph 4 mph 89% 0 in 0 W/m2
07:45 41.5 °F 38.5 °F 30.1 in ENE 0.9 mph 4 mph 89% 0 in 0 W/m2
07:50 41.5 °F 38.5 °F 30.1 in NNW 2 mph 4 mph 89% 0 in 0 W/m2
07:55 41.5 °F 38.5 °F 30.1 in SSW 0.9 mph 3 mph 89% 0 in 0 W/m2
08:00 41.5 °F 38.5 °F 30.1 in NNE 2 mph 8 mph 89% 0 in 0 W/m2
08:05 41.5 °F 38.5 °F 30.1 in WNW 2 mph 8 mph 89% 0 in 0 W/m2
08:10 41.5 °F 38.5 °F 30.1 in NNW 2.9 mph 4 mph 89% 0 in 0 W/m2
08:15 41.5 °F 38.5 °F 30.1 in Calm   5 mph 89% 0 in 5 W/m2
08:20 41.5 °F 38.5 °F 30.1 in NW 4 mph 9 mph 89% 0 in 7 W/m2
08:25 41.5 °F 38.5 °F 30.1 in NW 4 mph 5 mph 89% 0 in 7 W/m2
08:30 41.7 °F 38.7 °F 30.1 in WNW 2.9 mph 5 mph 89% 0 in 9 W/m2
08:35 41.7 °F 38.7 °F 30.1 in NW 2 mph 8 mph 89% 0 in 7 W/m2
08:40 41.5 °F 38.5 °F 30.1 in NNE 2 mph 8 mph 89% 0 in 9 W/m2
08:45 41.7 °F 38.7 °F 30.1 in ESE 2.9 mph 5 mph 89% 0 in 11 W/m2
08:50 41.5 °F 38.5 °F 30.1 in NNE 4.9 mph 8 mph 89% 0 in 12 W/m2
08:55 41.7 °F 38.7 °F 30.1 in Calm   4 mph 89% 0 in 18 W/m2
09:00 41.7 °F 38.7 °F 30.1 in Calm   3 mph 89% 0 in 39 W/m2
09:05 41.7 °F 38.7 °F 30.1 in North 4 mph 7 mph 89% 0 in 47 W/m2
09:10 41.7 °F 38.7 °F 30.1 in NNW 0.9 mph 7 mph 89% 0 in 58 W/m2
09:15 41.9 °F 38.7 °F 30.1 in NE 2.9 mph 7 mph 88% 0 in 67 W/m2
09:20 42.1 °F 38.8 °F 30.1 in West 2 mph 3 mph 88% 0 in 67 W/m2
09:25 42.1 °F 38.8 °F 30.1 in NW 2.9 mph 8 mph 88% 0 in 62 W/m2
09:30 42.1 °F 38.8 °F 30.1 in NNW 2 mph 3 mph 88% 0 in 67 W/m2
09:35 42.3 °F 39 °F 30.2 in NNW 2 mph 4 mph 88% 0 in 58 W/m2
09:40 42.3 °F 39 °F 30.2 in North 2 mph 4 mph 88% 0 in 97 W/m2
09:45 42.3 °F 39 °F 30.2 in Calm   1 mph 88% 0 in 114 W/m2
09:50 42.4 °F 39.2 °F 30.2 in WNW 2.9 mph 7 mph 88% 0 in 67 W/m2
09:55 42.6 °F 39 °F 30.2 in NE 4 mph 7 mph 87% 0 in 49 W/m2
10:00 42.8 °F 39.2 °F 30.2 in WSW 0.9 mph 4 mph 87% 0 in 62 W/m2
10:05 43 °F 39 °F 30.2 in WSW 4 mph 7 mph 86% 0 in 69 W/m2
10:10 43.2 °F 39.2 °F 30.2 in ENE 4 mph 5 mph 86% 0 in 53 W/m2
10:15 43.3 °F 39.4 °F 30.2 in SSE 0.9 mph 6 mph 86% 0 in 86 W/m2
10:20 43.5 °F 39.4 °F 30.2 in NNE 2 mph 10 mph 85% 0 in 35 W/m2
10:25 43.5 °F 39.4 °F 30.2 in East 2 mph 4 mph 85% 0 in 49 W/m2
10:30 43.7 °F 39.2 °F 30.2 in ESE 2 mph 10 mph 84% 0 in 35 W/m2
Juneau County Weather
Compliments of Weather Underground - 2 mb